Time;durP1;ratioP1;P1;durP2;ratioP2;P2;SDS_P1;SDS_P2;PMS_P1;PMS_P2;Temp;Humidity;BMP_temperature;BMP_pressure;BME280_temperature;BME280_humidity;BME280_pressure;Samples;Min_cycle;Max_cycle;Signal;HPM_P1;HPM_P2
2022/11/23 00:02:02;;;;;;;111.13;59.20;;;;;;;3.39;74.32;99135.28;4942711;28;100264;-87
2022/11/23 00:04:28;;;;;;;108.20;56.47;;;;;;;3.53;74.08;99175.63;4944144;28;97109;-86
2022/11/23 00:06:53;;;;;;;102.63;56.10;;;;;;;3.35;74.52;99149.22;4923456;28;97035;-87
2022/11/23 00:09:18;;;;;;;110.40;57.13;;;;;;;3.24;74.37;99132.22;4934242;28;101432;-87
2022/11/23 00:11:44;;;;;;;102.93;57.00;;;;;;;3.48;74.46;99170.53;4919040;28;101173;-86
2022/11/23 00:14:10;;;;;;;108.13;57.40;;;;;;;3.39;74.48;99174.19;4919488;28;96714;-87
2022/11/23 00:16:35;;;;;;;98.10;54.33;;;;;;;3.17;74.71;99136.66;4928863;28;96728;-87
2022/11/23 00:19:01;;;;;;;107.37;55.87;;;;;;;3.30;74.84;99155.41;4934684;28;100639;-86
2022/11/23 00:21:29;;;;;;;106.17;55.37;;;;;;;3.35;74.68;99156.16;4929357;28;97798;-87
2022/11/23 00:23:55;;;;;;;105.50;55.00;;;;;;;3.46;74.83;99180.13;4912146;28;97119;-87
2022/11/23 00:26:20;;;;;;;100.33;55.07;;;;;;;3.40;75.03;99175.94;4923549;28;97207;-86
2022/11/23 00:28:46;;;;;;;111.37;56.40;;;;;;;3.38;75.02;99182.03;4918285;28;101255;-86
2022/11/23 00:31:14;;;;;;;103.37;55.37;;;;;;;3.47;74.92;99183.56;4928128;28;101171;-86
2022/11/23 00:33:40;;;;;;;115.30;57.33;;;;;;;3.51;74.63;99186.03;4934138;28;97127;-88
2022/11/23 00:36:09;;;;;;;101.37;55.73;;;;;;;3.46;74.48;99167.16;4918997;28;97352;-86
2022/11/23 00:38:35;;;;;;;104.17;55.20;;;;;;;3.57;74.26;99192.81;4918245;28;101477;-87
2022/11/23 00:41:03;;;;;;;105.47;57.30;;;;;;;3.52;74.51;99182.56;4935323;28;101759;-87
2022/11/23 00:43:29;;;;;;;110.47;56.30;;;;;;;3.35;75.22;99190.72;4932011;28;96940;-86
2022/11/23 00:46:15;;;;;;;107.73;58.03;;;;;;;3.32;74.95;99177.00;4931752;28;96983;-86
2022/11/23 00:48:42;;;;;;;108.03;56.27;;;;;;;3.33;75.33;99183.88;4917982;28;101568;-86
2022/11/23 00:51:10;;;;;;;107.90;55.60;;;;;;;3.29;75.07;99172.72;4937615;28;101265;-88
2022/11/23 00:53:36;;;;;;;109.23;57.03;;;;;;;3.40;74.73;99190.59;4940330;28;96756;-90
2022/11/23 00:56:02;;;;;;;103.67;58.00;;;;;;;3.20;75.17;99177.25;4939700;28;96823;-87
2022/11/23 00:58:27;;;;;;;100.63;55.43;;;;;;;3.25;75.83;99189.22;4937315;28;100944;-87
2022/11/23 01:01:10;;;;;;;97.87;54.37;;;;;;;3.22;75.48;99167.69;4924519;28;99913;-87
2022/11/23 01:03:38;;;;;;;112.60;59.77;;;;;;;3.44;74.82;99181.03;4923917;28;97203;-88
2022/11/23 01:06:15;;;;;;;105.60;55.60;;;;;;;3.34;74.94;99191.59;4917573;28;97174;-87
2022/11/23 01:08:42;;;;;;;97.63;51.47;;;;;;;2.94;75.67;99145.81;4918004;28;101834;-87
2022/11/23 01:11:10;;;;;;;99.60;54.50;;;;;;;3.32;75.16;99187.38;4918458;28;101520;-87
2022/11/23 01:13:37;;;;;;;101.93;56.60;;;;;;;3.27;75.32;99184.00;4924797;28;96737;-89
2022/11/23 01:16:04;;;;;;;105.37;53.67;;;;;;;3.14;75.28;99162.66;4938013;28;97280;-87
2022/11/23 01:18:29;;;;;;;102.07;54.07;;;;;;;3.27;75.30;99204.75;4936877;28;101169;-87
2022/11/23 01:20:55;;;;;;;99.83;54.33;;;;;;;3.34;75.33;99203.72;4954436;28;97513;-87
2022/11/23 01:23:20;;;;;;;101.93;54.17;;;;;;;3.30;75.32;99202.94;4913234;28;97194;-86
2022/11/23 01:25:46;;;;;;;98.20;53.00;;;;;;;3.32;75.06;99187.38;4924926;28;97409;-87
2022/11/23 01:28:12;;;;;;;97.43;53.57;;;;;;;3.39;74.98;99212.25;4955902;28;98307;-87
2022/11/23 01:30:37;;;;;;;96.50;52.90;;;;;;;3.31;75.16;99208.97;4918748;28;101006;-87
2022/11/23 01:33:03;;;;;;;104.30;54.60;;;;;;;3.26;75.37;99198.72;4935186;28;97134;-87
2022/11/23 01:35:29;;;;;;;92.67;51.80;;;;;;;3.08;75.20;99176.63;4918892;28;97236;-87
2022/11/23 01:37:54;;;;;;;98.60;53.70;;;;;;;3.17;75.54;99194.59;4919227;28;101336;-87
2022/11/23 01:40:20;;;;;;;106.03;53.90;;;;;;;3.25;75.57;99193.56;4937977;28;101416;-87
2022/11/23 01:42:54;;;;;;;99.20;51.97;;;;;;;3.24;75.63;99213.47;4937001;28;97277;-87
2022/11/23 01:45:37;;;;;;;93.87;51.77;;;;;;;3.18;75.87;99206.66;4937551;28;97305;-87
2022/11/23 01:48:10;;;;;;;95.30;52.37;;;;;;;3.22;75.61;99212.63;4933819;28;102203;-87
2022/11/23 01:50:36;;;;;;;96.07;51.33;;;;;;;3.30;75.43;99212.47;4946441;28;98201;-89
2022/11/23 01:53:02;;;;;;;98.20;52.27;;;;;;;3.26;75.44;99203.03;4917529;28;97253;-87
2022/11/23 01:55:27;;;;;;;94.93;51.93;;;;;;;3.42;75.08;99209.59;4934789;28;96990;-87
2022/11/23 01:57:53;;;;;;;90.20;49.43;;;;;;;3.28;75.09;99198.69;4920139;28;100244;-87
2022/11/23 02:00:21;;;;;;;89.93;47.07;;;;;;;3.40;74.93;99207.06;4932040;28;101448;-87
2022/11/23 02:02:52;;;;;;;90.00;51.37;;;;;;;3.38;75.07;99211.41;4914004;28;97351;-87
2022/11/23 02:05:22;;;;;;;97.23;48.80;;;;;;;3.26;75.07;99187.47;4949529;28;97156;-86
2022/11/23 02:07:48;;;;;;;95.43;52.17;;;;;;;3.20;74.54;99182.44;4942610;28;100303;-86
2022/11/23 02:10:15;;;;;;;93.73;52.23;;;;;;;3.23;74.81;99203.97;4935700;28;101516;-85
2022/11/23 02:12:40;;;;;;;92.27;50.97;;;;;;;3.38;74.13;99200.19;4920970;28;97555;-86
2022/11/23 02:15:06;;;;;;;88.37;50.07;;;;;;;3.21;74.73;99179.81;4937093;28;96917;-86
2022/11/23 02:17:34;;;;;;;92.97;51.90;;;;;;;3.26;75.39;99206.50;4923638;28;101504;-86
2022/11/23 02:20:07;;;;;;;87.30;50.23;;;;;;;3.28;75.28;99212.50;4936224;28;101040;-87
2022/11/23 02:22:43;;;;;;;90.60;49.07;;;;;;;3.21;75.09;99205.75;4930984;28;97168;-86
2022/11/23 02:25:21;;;;;;;84.63;47.47;;;;;;;3.29;75.36;99210.78;4920859;28;97140;-86
2022/11/23 02:27:46;;;;;;;86.70;48.87;;;;;;;3.35;74.78;99213.22;4930366;28;101768;-87
2022/11/23 02:30:12;;;;;;;87.13;46.13;;;;;;;3.21;74.62;99181.56;4923236;28;101501;-86
2022/11/23 02:32:38;;;;;;;86.27;47.77;;;;;;;3.38;74.50;99214.00;4922118;28;97141;-88
2022/11/23 02:35:03;;;;;;;81.17;46.97;;;;;;;3.06;74.51;99160.25;4936538;28;96882;-86
2022/11/23 02:37:29;;;;;;;86.00;47.57;;;;;;;3.37;74.58;99206.25;4917561;28;101285;-87
2022/11/23 02:39:55;;;;;;;80.07;45.13;;;;;;;3.30;74.39;99192.56;4936679;28;97386;-85
2022/11/23 02:42:22;;;;;;;77.63;43.43;;;;;;;3.12;74.87;99173.09;4920698;28;96715;-87
2022/11/23 02:44:47;;;;;;;81.53;45.73;;;;;;;3.35;74.50;99211.50;4953320;28;96715;-85
2022/11/23 02:47:13;;;;;;;79.23;43.00;;;;;;;3.35;74.89;99200.25;4949098;28;101220;-87
2022/11/23 02:49:45;;;;;;;77.17;43.87;;;;;;;3.31;74.41;99194.25;4934900;28;97407;-87
2022/11/23 02:52:10;;;;;;;77.13;42.83;;;;;;;3.46;73.90;99211.25;4914238;28;96801;-87
2022/11/23 02:54:36;;;;;;;79.37;44.37;;;;;;;3.44;74.09;99212.19;4934406;28;96792;-86
2022/11/23 02:57:02;;;;;;;80.23;45.00;;;;;;;3.31;74.38;99199.47;4919689;28;100311;-87
2022/11/23 02:59:31;;;;;;;82.20;43.40;;;;;;;3.44;74.67;99219.97;4936173;28;100638;-87
2022/11/23 03:01:57;;;;;;;82.80;46.23;;;;;;;3.42;74.44;99219.97;4937757;28;96661;-87
2022/11/23 03:04:23;;;;;;;76.60;44.13;;;;;;;3.47;74.65;99215.53;4934621;28;96999;-88
2022/11/23 03:06:50;;;;;;;75.50;44.20;;;;;;;3.49;74.27;99208.59;4932387;28;101275;-87
2022/11/23 03:09:16;;;;;;;85.13;45.23;;;;;;;3.43;74.07;99197.47;4934762;28;101744;-87
2022/11/23 03:11:42;;;;;;;82.97;44.33;;;;;;;3.46;74.33;99203.47;4922479;28;96796;-87
2022/11/23 03:14:07;;;;;;;76.93;43.47;;;;;;;3.46;74.48;99207.78;4934427;28;97021;-87
2022/11/23 03:16:41;;;;;;;81.30;44.90;;;;;;;3.43;74.39;99202.66;4933506;28;100396;-86
2022/11/23 03:19:07;;;;;;;78.77;44.60;;;;;;;3.38;74.72;99206.22;4919617;28;101178;-86
2022/11/23 03:21:32;;;;;;;79.73;44.07;;;;;;;3.23;74.00;99170.25;4923302;28;97141;-87
2022/11/23 03:24:04;;;;;;;86.23;46.10;;;;;;;3.46;74.51;99205.19;4917415;28;97403;-87
2022/11/23 03:26:30;;;;;;;73.03;42.23;;;;;;;3.43;74.78;99211.28;4935683;28;102263;-86
2022/11/23 03:29:04;;;;;;;83.00;43.47;;;;;;;3.47;74.17;99206.91;4920574;28;99770;-85
2022/11/23 03:31:30;;;;;;;78.00;43.03;;;;;;;3.29;74.26;99190.88;4919853;28;97082;-87
2022/11/23 03:33:57;;;;;;;78.67;43.10;;;;;;;3.32;74.77;99210.72;4920958;28;97182;-87
2022/11/23 03:36:24;;;;;;;71.93;42.47;;;;;;;3.31;74.42;99199.47;4918144;28;100272;-86
2022/11/23 03:38:49;;;;;;;79.30;43.23;;;;;;;3.35;74.82;99210.63;4915869;28;101067;-87
2022/11/23 03:41:33;;;;;;;75.63;43.07;;;;;;;3.28;74.63;99209.06;4930422;28;97085;-86
2022/11/23 03:43:59;;;;;;;76.50;42.80;;;;;;;3.09;75.18;99193.06;4916293;28;97345;-87
2022/11/23 03:46:24;;;;;;;75.40;40.40;;;;;;;3.29;74.93;99203.84;4913121;28;100837;-87
2022/11/23 03:48:50;;;;;;;77.13;42.93;;;;;;;3.47;74.19;99217.28;4910432;28;100887;-87
2022/11/23 03:51:16;;;;;;;79.40;44.30;;;;;;;3.21;74.70;99182.41;4913228;28;97291;-86
2022/11/23 03:53:42;;;;;;;75.57;45.23;;;;;;;3.37;74.45;99201.06;4931430;28;97345;-88
2022/11/23 03:56:08;;;;;;;78.63;44.90;;;;;;;3.35;74.41;99197.66;4927635;28;100318;-87
2022/11/23 03:58:38;;;;;;;75.50;42.33;;;;;;;3.10;75.38;99195.59;4931053;28;100679;-87
2022/11/23 04:01:08;;;;;;;71.93;42.07;;;;;;;3.00;75.43;99177.69;4909513;28;96750;-86
2022/11/23 04:03:33;;;;;;;74.67;41.63;;;;;;;3.13;75.31;99207.66;4926871;28;96856;-86
2022/11/23 04:06:34;;;;;;;71.97;40.87;;;;;;;3.24;75.35;99204.84;4914975;28;98399;-86
2022/11/23 04:09:07;;;;;;;77.93;41.67;;;;;;;3.20;75.04;99192.81;4919243;28;101249;-86
2022/11/23 04:11:46;;;;;;;78.73;43.17;;;;;;;3.23;75.25;99193.59;4937257;28;96864;-87
2022/11/23 04:14:11;;;;;;;69.23;40.03;;;;;;;3.18;75.12;99196.28;4935720;28;97129;-87
2022/11/23 04:16:37;;;;;;;74.97;42.03;;;;;;;3.21;75.44;99195.38;4920480;28;101302;-87
2022/11/23 04:19:03;;;;;;;71.80;40.13;;;;;;;3.30;75.38;99210.72;4935160;28;97284;-87
2022/11/23 04:21:28;;;;;;;71.23;39.73;;;;;;;3.32;74.99;99208.13;4916502;28;96698;-86
2022/11/23 04:23:54;;;;;;;71.17;39.17;;;;;;;3.11;75.10;99196.44;4934160;28;97148;-86
2022/11/23 04:26:19;;;;;;;69.53;39.83;;;;;;;3.26;74.77;99203.03;4916729;28;101406;-88
2022/11/23 04:28:46;;;;;;;75.67;39.97;;;;;;;3.36;74.26;99189.00;4912365;28;101336;-87
2022/11/23 04:31:11;;;;;;;68.73;39.33;;;;;;;3.20;74.80;99185.91;4928017;28;97108;-87
2022/11/23 04:33:48;;;;;;;75.93;41.33;;;;;;;3.22;75.32;99204.84;4956228;28;97172;-87
2022/11/23 04:36:16;;;;;;;66.70;37.10;;;;;;;3.23;75.24;99203.97;4923274;28;100463;-87
2022/11/23 04:38:42;;;;;;;67.67;38.93;;;;;;;3.01;75.12;99172.47;4947178;28;101484;-87
2022/11/23 04:41:08;;;;;;;64.90;40.00;;;;;;;3.03;75.41;99172.44;4936008;28;96712;-85
2022/11/23 04:43:34;;;;;;;74.97;41.50;;;;;;;3.35;74.47;99197.66;4934109;28;97204;-85
2022/11/23 04:46:01;;;;;;;70.23;40.20;;;;;;;3.28;74.99;99199.53;4916107;28;100631;-86
2022/11/23 04:48:29;;;;;;;75.67;43.20;;;;;;;3.18;75.59;99192.84;4922857;28;101201;-87
2022/11/23 04:50:55;;;;;;;70.23;39.37;;;;;;;2.98;75.95;99169.94;4922636;28;97112;-86
2022/11/23 04:53:27;;;;;;;;;;;;;;;3.19;75.79;99204.91;4924960;28;96812;-85
2022/11/23 04:55:53;;;;;;;67.07;39.40;;;;;;;3.17;75.75;99194.59;4921235;28;100576;-86
2022/11/23 04:58:19;;;;;;;68.87;41.43;;;;;;;3.17;74.91;99157.41;4938139;28;101634;-87
2022/11/23 05:00:49;;;;;;;69.50;39.30;;;;;;;3.33;75.10;99191.66;4935576;28;97220;-87
2022/11/23 05:03:15;;;;;;;71.30;40.40;;;;;;;3.36;75.23;99200.22;4922292;28;97402;-86
2022/11/23 05:05:42;;;;;;;66.40;38.70;;;;;;;3.36;75.56;99199.38;4922025;28;100996;-88
2022/11/23 05:08:08;;;;;;;69.50;38.73;;;;;;;3.11;74.99;99149.78;4938743;28;101707;-87
2022/11/23 05:10:47;;;;;;;77.60;39.17;;;;;;;3.32;75.49;99179.59;4939856;28;97607;-86
2022/11/23 05:13:13;;;;;;;72.10;39.40;;;;;;;3.42;74.90;99193.19;4922490;28;97338;-85
2022/11/23 05:15:39;;;;;;;71.77;39.80;;;;;;;3.40;75.23;99199.28;4921739;28;101310;-87
2022/11/23 05:18:05;;;;;;;71.47;40.07;;;;;;;3.40;74.97;99204.47;4933748;28;101517;-87
2022/11/23 05:20:33;;;;;;;69.43;38.40;;;;;;;3.43;75.27;99205.25;4926832;28;96751;-87
2022/11/23 05:22:58;;;;;;;68.43;39.00;;;;;;;3.46;75.14;99210.38;4921164;28;96884;-86
2022/11/23 05:25:25;;;;;;;70.43;38.60;;;;;;;3.38;75.42;99193.25;4908851;28;101494;-87
2022/11/23 05:27:59;;;;;;;70.30;39.70;;;;;;;3.42;74.84;99195.78;4911104;28;101877;-87
2022/11/23 05:30:26;;;;;;;64.00;35.40;;;;;;;3.50;75.13;99210.28;4936775;28;96978;-86
2022/11/23 05:32:52;;;;;;;63.00;37.57;;;;;;;3.38;74.96;99193.25;4930142;28;96769;-86
2022/11/23 05:35:18;;;;;;;64.17;38.37;;;;;;;3.42;74.60;99198.38;4938367;28;99051;-86
2022/11/23 05:37:44;;;;;;;66.53;38.33;;;;;;;3.45;75.01;99209.53;4920349;28;100067;-88
2022/11/23 05:40:11;;;;;;;71.07;40.73;;;;;;;3.38;75.14;99198.44;4922149;28;96815;-85
2022/11/23 05:42:37;;;;;;;69.83;38.53;;;;;;;3.41;75.09;99210.50;4930615;28;97733;-87
2022/11/23 05:45:17;;;;;;;66.50;38.20;;;;;;;3.36;75.28;99207.16;4936903;28;101877;-87
2022/11/23 05:47:53;;;;;;;65.83;38.03;;;;;;;3.40;75.32;99213.97;4935971;28;100371;-86
2022/11/23 05:50:28;;;;;;;61.25;36.42;;;;;;;3.37;75.29;99186.38;4942393;28;96826;-86
2022/11/23 05:53:13;;;;;;;66.77;38.17;;;;;;;3.49;74.98;99205.13;4938664;28;97362;-88
2022/11/23 05:55:41;;;;;;;73.73;38.40;;;;;;;3.38;75.44;99206.22;4934813;28;101740;-84
2022/11/23 05:58:07;;;;;;;63.73;37.10;;;;;;;3.41;75.89;99207.91;4936919;28;100422;-87
2022/11/23 06:00:34;;;;;;;69.43;40.37;;;;;;;3.43;75.25;99197.47;4928519;28;97108;-86
2022/11/23 06:03:02;;;;;;;64.33;38.40;;;;;;;3.36;75.12;99189.00;4916136;28;96903;-86
2022/11/23 06:05:30;;;;;;;65.27;38.90;;;;;;;3.52;74.73;99218.91;4957182;28;101891;-86
2022/11/23 06:07:56;;;;;;;62.40;36.80;;;;;;;3.49;74.82;99211.19;4943905;28;101586;-86
2022/11/23 06:10:25;;;;;;;70.27;39.70;;;;;;;3.57;74.88;99223.97;4928150;28;96712;-84
2022/11/23 06:12:51;;;;;;;70.27;39.53;;;;;;;3.52;74.91;99228.41;4920784;28;97418;-86
2022/11/23 06:15:18;;;;;;;71.37;40.97;;;;;;;3.50;74.87;99223.25;4936949;28;101378;-85
2022/11/23 06:17:45;;;;;;;65.47;38.20;;;;;;;3.51;75.10;99234.47;4920361;28;101795;-87
2022/11/23 06:20:15;;;;;;;71.57;39.80;;;;;;;3.51;74.98;99248.31;4936922;28;96728;-85
2022/11/23 06:22:51;;;;;;;70.57;39.60;;;;;;;3.60;74.52;99257.63;4932918;28;97275;-87
2022/11/23 06:25:17;;;;;;;70.88;36.95;;;;;;;3.48;74.65;99261.34;4928850;28;101200;-85
2022/11/23 06:27:56;;;;;;;63.13;35.55;;;;;;;3.51;74.78;99255.25;4918512;28;100120;-85
2022/11/23 06:30:26;;;;;;;62.73;35.97;;;;;;;3.54;74.51;99258.63;4929720;28;97233;-89
2022/11/23 06:32:52;;;;;;;62.80;35.30;;;;;;;3.51;74.81;99263.03;4920060;28;96831;-89
2022/11/23 06:35:20;;;;;;;63.43;36.57;;;;;;;3.52;74.85;99255.22;4915277;28;100561;-89
2022/11/23 06:37:48;;;;;;;57.40;34.67;;;;;;;3.40;74.50;99245.97;4936618;28;99914;-89
2022/11/23 06:40:14;;;;;;;59.10;35.60;;;;;;;3.40;74.94;99253.75;4919974;28;96991;-88
2022/11/23 06:42:41;;;;;;;61.30;35.30;;;;;;;3.50;74.72;99264.78;4918262;28;97092;-92
2022/11/23 06:45:14;;;;;;;59.10;35.13;;;;;;;3.51;74.63;99261.28;4937007;28;101415;-88
2022/11/23 06:47:39;;;;;;;60.37;35.33;;;;;;;3.52;74.39;99263.00;4919234;28;100775;-83
2022/11/23 06:50:05;;;;;;;59.07;35.60;;;;;;;3.58;74.32;99267.22;4951796;28;97179;-86
2022/11/23 06:52:31;;;;;;;57.87;33.83;;;;;;;3.45;74.09;99269.22;4924104;28;97058;-87
2022/11/23 06:54:56;;;;;;;55.13;33.57;;;;;;;3.48;74.03;99271.72;4922047;28;101778;-86
2022/11/23 06:57:24;;;;;;;58.43;32.87;;;;;;;3.38;74.08;99272.84;4942446;28;101318;-85
2022/11/23 06:59:50;;;;;;;56.80;34.40;;;;;;;3.31;74.59;99274.69;4937495;28;96778;-87
2022/11/23 07:02:21;;;;;;;59.47;35.87;;;;;;;3.35;74.36;99278.09;4923379;28;97023;-86
2022/11/23 07:04:47;;;;;;;58.63;34.30;;;;;;;3.36;74.49;99278.03;4949410;28;98155;-88
2022/11/23 07:07:15;;;;;;;53.83;33.20;;;;;;;3.34;74.77;99265.97;4914884;28;100337;-88
2022/11/23 07:09:56;;;;;;;62.43;33.33;;;;;;;3.25;74.50;99261.00;4925039;28;97163;-88
2022/11/23 07:12:28;;;;;;;59.38;33.70;;;;;;;3.45;74.65;99278.75;4935747;28;97203;-89
2022/11/23 07:14:53;;;;;;;59.90;34.50;;;;;;;3.35;74.62;99276.34;4935769;28;98260;-86
2022/11/23 07:17:19;;;;;;;55.00;32.67;;;;;;;3.32;74.68;99278.16;4950779;28;100981;-87
2022/11/23 07:19:45;;;;;;;58.07;33.33;;;;;;;3.36;74.86;99282.38;4949029;28;97269;-88
2022/11/23 07:22:11;;;;;;;56.67;32.50;;;;;;;3.38;74.78;99278.88;4952698;28;96960;-89
2022/11/23 07:24:38;;;;;;;59.80;32.93;;;;;;;3.36;74.39;99275.44;4932736;28;101124;-90
2022/11/23 07:27:05;;;;;;;60.93;34.23;;;;;;;3.47;74.48;99287.34;4939942;28;101538;-88
2022/11/23 07:29:31;;;;;;;53.40;30.73;;;;;;;3.47;74.56;99282.16;4916237;28;96747;-89
2022/11/23 07:31:56;;;;;;;59.80;34.53;;;;;;;3.59;73.84;99295.72;4922053;28;97172;-88
2022/11/23 07:34:23;;;;;;;58.83;32.77;;;;;;;3.35;74.00;99278.94;4916839;28;101146;-88
2022/11/23 07:36:50;;;;;;;50.77;32.30;;;;;;;3.39;74.64;99301.31;4930792;28;99651;-88
2022/11/23 07:39:16;;;;;;;53.27;33.30;;;;;;;3.30;74.82;99285.09;4921129;28;96861;-87
2022/11/23 07:41:41;;;;;;;55.30;31.83;;;;;;;3.37;74.76;99292.75;4941825;28;97376;-88
2022/11/23 07:44:12;;;;;;;57.57;33.43;;;;;;;3.42;74.66;99302.16;4932665;28;99862;-87
2022/11/23 07:46:37;;;;;;;57.13;32.83;;;;;;;3.51;74.13;99305.41;4935117;28;100949;-88
2022/11/23 07:49:03;;;;;;;56.00;32.87;;;;;;;3.38;74.54;99302.22;4934225;28;97379;-91
2022/11/23 07:51:28;;;;;;;56.77;33.60;;;;;;;3.33;74.36;99291.06;4918761;28;97180;-88
2022/11/23 07:53:54;;;;;;;52.73;32.93;;;;;;;3.49;74.37;99314.97;4935169;28;100812;-88
2022/11/23 07:56:19;;;;;;;51.97;33.40;;;;;;;3.35;74.34;99298.84;4914856;28;101249;-87
2022/11/23 07:58:45;;;;;;;56.37;33.43;;;;;;;3.46;74.66;99322.81;4910906;28;96895;-89
2022/11/23 08:01:17;;;;;;;58.47;33.63;;;;;;;3.44;74.65;99326.34;4932253;28;97235;-88
2022/11/23 08:03:46;;;;;;;56.75;33.45;;;;;;;3.50;74.10;99326.19;4933887;28;101373;-89
2022/11/23 08:06:12;;;;;;;60.07;35.03;;;;;;;3.56;74.08;99332.09;4917657;28;101145;-87
2022/11/23 08:08:38;;;;;;;54.73;34.27;;;;;;;3.49;74.32;99334.84;4935778;28;97272;-87
2022/11/23 08:11:05;;;;;;;54.47;32.00;;;;;;;3.40;74.78;99326.41;4924537;28;97110;-88
2022/11/23 08:13:31;;;;;;;53.97;33.63;;;;;;;3.28;74.68;99320.59;4928249;28;101338;-86
2022/11/23 08:15:56;;;;;;;57.20;34.87;;;;;;;3.33;75.48;99336.94;4930899;28;102158;-92
2022/11/23 08:18:26;;;;;;;54.00;32.17;;;;;;;3.47;75.03;99340.09;4932798;28;96826;-89
2022/11/23 08:20:51;;;;;;;57.97;34.07;;;;;;;3.37;75.12;99336.84;4938486;28;97870;-89
2022/11/23 08:23:17;;;;;;;58.00;33.60;;;;;;;3.43;74.29;99306.44;4920380;28;100793;-90
2022/11/23 08:25:42;;;;;;;56.47;33.03;;;;;;;3.59;74.67;99337.22;4960088;28;98420;-90
2022/11/23 08:28:08;;;;;;;57.53;33.80;;;;;;;3.51;74.37;99317.53;4918742;28;96753;-93
2022/11/23 08:30:34;;;;;;;52.87;32.77;;;;;;;3.55;74.62;99338.19;4939461;28;96876;-93
2022/11/23 08:33:07;;;;;;;62.47;34.27;;;;;;;3.42;74.57;99309.94;4933797;28;101033;-89
2022/11/23 08:35:35;;;;;;;59.60;34.33;;;;;;;3.71;74.61;99328.31;4945703;28;98514;-85
2022/11/23 08:38:01;;;;;;;58.87;33.93;;;;;;;3.76;74.38;99326.50;4949622;28;96805;-85
2022/11/23 08:40:26;;;;;;;60.27;33.37;;;;;;;3.61;73.74;99290.50;4914259;28;97127;-85
2022/11/23 08:42:52;;;;;;;61.60;34.03;;;;;;;3.71;74.37;99322.28;4943698;28;97605;-86
2022/11/23 08:45:17;;;;;;;60.30;35.90;;;;;;;3.71;74.17;99325.72;4914032;28;101369;-85
2022/11/23 08:47:42;;;;;;;58.13;34.87;;;;;;;3.60;74.11;99296.56;4932310;28;96748;-86
2022/11/23 08:50:08;;;;;;;55.83;33.20;;;;;;;3.73;73.71;99310.13;4952649;28;97413;-86
2022/11/23 08:52:34;;;;;;;61.10;33.87;;;;;;;3.96;73.51;99322.59;4919975;28;101897;-85
2022/11/23 08:55:00;;;;;;;56.67;33.20;;;;;;;3.61;74.09;99298.28;4925026;28;100597;-85
2022/11/23 08:57:26;;;;;;;57.87;33.93;;;;;;;3.82;73.42;99312.53;4912964;28;98128;-85
2022/11/23 08:59:52;;;;;;;55.67;33.37;;;;;;;3.77;73.50;99312.63;4907876;28;97437;-84
2022/11/23 09:02:18;;;;;;;63.83;36.93;;;;;;;3.98;73.20;99316.47;4909668;28;101216;-86
2022/11/23 09:04:44;;;;;;;63.50;37.87;;;;;;;3.90;73.07;99312.31;4947907;28;98125;-85
2022/11/23 09:07:09;;;;;;;58.83;35.47;;;;;;;3.67;73.46;99284.31;4935208;28;97188;-85
2022/11/23 09:09:35;;;;;;;58.47;33.67;;;;;;;3.75;73.61;99304.03;4934409;28;97212;-86
2022/11/23 09:12:00;;;;;;;57.10;34.47;;;;;;;3.61;73.50;99267.13;4935854;28;101179;-85
2022/11/23 09:14:26;;;;;;;55.07;35.40;;;;;;;3.59;74.32;99266.31;4918569;28;101341;-84
2022/11/23 09:16:52;;;;;;;61.87;34.40;;;;;;;3.78;74.00;99296.16;4935501;28;96848;-86
2022/11/23 09:19:18;;;;;;;55.70;34.77;;;;;;;3.67;73.88;99264.41;4926588;28;97558;-86
2022/11/23 09:21:43;;;;;;;66.10;36.63;;;;;;;3.98;73.75;99305.22;4933123;28;99162;-85
2022/11/23 09:24:10;;;;;;;58.07;36.07;;;;;;;3.85;73.41;99296.88;4930728;28;101033;-84
2022/11/23 09:26:36;;;;;;;61.10;37.50;;;;;;;3.71;73.58;99260.84;4941961;28;96761;-85
2022/11/23 09:29:03;;;;;;;58.30;34.73;;;;;;;3.90;74.04;99301.94;4934345;28;97434;-85
2022/11/23 09:31:29;;;;;;;56.57;34.50;;;;;;;3.96;73.95;99307.03;4916762;28;101771;-85
2022/11/23 09:33:56;;;;;;;62.17;34.40;;;;;;;3.96;73.58;99307.03;4927561;28;97332;-85
2022/11/23 09:36:24;;;;;;;60.53;34.47;;;;;;;4.05;73.31;99299.00;4937197;28;97303;-85
2022/11/23 09:38:50;;;;;;;61.57;36.27;;;;;;;3.81;73.32;99249.38;4940902;28;97132;-85
2022/11/23 09:41:25;;;;;;;57.03;35.07;;;;;;;3.98;73.44;99290.50;4925220;28;100044;-86
2022/11/23 09:43:59;;;;;;;56.03;35.13;;;;;;;4.00;73.47;99280.06;4936136;28;101161;-85
2022/11/23 09:46:36;;;;;;;60.27;36.27;;;;;;;4.00;73.27;99278.31;4923450;28;97120;-85
2022/11/23 09:49:14;;;;;;;59.00;34.73;;;;;;;3.99;73.33;99284.44;4932952;28;97088;-86
2022/11/23 09:51:41;;;;;;;54.10;34.83;;;;;;;3.99;73.93;99268.00;4950483;28;101565;-84
2022/11/23 09:54:27;;;;;;;55.33;35.73;;;;;;;4.08;73.67;99263.44;4947378;28;97894;-84
2022/11/23 09:56:54;;;;;;;64.13;37.17;;;;;;;4.00;73.79;99257.56;4936770;28;97014;-84
2022/11/23 09:59:31;;;;;;;60.30;36.33;;;;;;;4.13;73.39;99272.84;4933552;28;97338;-84
2022/11/23 10:01:57;;;;;;;55.70;33.70;;;;;;;4.05;73.56;99258.31;4932054;28;101986;-84
2022/11/23 10:04:24;;;;;;;63.40;37.37;;;;;;;4.09;73.53;99246.09;4951039;28;98098;-85
2022/11/23 10:07:01;;;;;;;64.43;37.67;;;;;;;4.20;73.52;99262.25;4917186;28;97425;-84
2022/11/23 10:09:41;;;;;;;58.23;35.37;;;;;;;4.22;73.46;99257.91;4934188;28;97113;-84
2022/11/23 10:12:30;;;;;;;61.93;37.80;;;;;;;4.26;73.18;99262.09;4931339;28;101429;-85
2022/11/23 10:15:30;;;;;;;53.87;35.40;;;;;;;4.24;72.79;99257.84;4923725;28;101502;-84
2022/11/23 10:17:58;;;;;;;59.30;34.60;;;;;;;4.29;72.96;99269.81;4906533;28;97349;-84
2022/11/23 10:21:01;;;;;;;63.20;35.10;;;;;;;4.27;73.28;99265.56;4950787;28;97288;-81
2022/11/23 10:23:55;;;;;;;58.33;37.17;;;;;;;4.39;72.97;99254.00;4962344;28;99586;-83
2022/11/23 10:26:37;;;;;;;53.83;33.83;;;;;;;4.28;72.87;99243.91;4933423;28;101350;-84
2022/11/23 10:29:13;;;;;;;64.72;39.25;;;;;;;4.42;72.72;99267.78;4937308;28;97273;-83
2022/11/23 10:31:40;;;;;;;58.53;35.40;;;;;;;4.34;72.75;99264.53;4935021;28;96930;-83
2022/11/23 10:34:39;;;;;;;59.13;36.17;;;;;;;4.36;72.46;99233.28;4931086;28;101402;-84
2022/11/23 10:37:10;;;;;;;54.77;35.13;;;;;;;4.46;72.64;99256.41;4923785;28;101489;-84
2022/11/23 10:39:36;;;;;;;;;;;;;;;4.42;72.67;99259.09;4943629;28;96768;-83
2022/11/23 10:42:13;;;;;;;57.03;34.17;;;;;;;4.48;72.43;99254.63;4954998;28;98076;-83
2022/11/23 10:44:41;;;;;;;58.47;35.73;;;;;;;4.45;72.67;99254.72;4932949;28;101230;-83
2022/11/23 10:47:07;;;;;;;58.90;36.83;;;;;;;4.51;72.45;99235.50;4950742;28;98243;-83
2022/11/23 10:49:34;;;;;;;58.93;35.57;;;;;;;4.31;72.54;99212.66;4919779;28;96849;-83
2022/11/23 10:52:02;;;;;;;59.90;37.80;;;;;;;4.48;72.73;99231.25;4937703;28;97255;-84
2022/11/23 10:54:40;;;;;;;64.17;37.43;;;;;;;4.71;72.06;99247.94;4925355;28;100857;-85
2022/11/23 10:57:33;;;;;;;66.23;37.30;;;;;;;4.61;72.53;99251.69;4954341;28;100225;-84
2022/11/23 11:00:14;;;;;;;59.20;34.03;;;;;;;4.49;72.25;99232.09;4939939;28;96863;-84
2022/11/23 11:02:44;;;;;;;58.40;34.23;;;;;;;4.63;72.04;99247.31;4934315;28;97156;-84
2022/11/23 11:05:30;;;;;;;54.20;33.33;;;;;;;4.76;72.31;99252.13;4918306;28;100457;-84
2022/11/23 11:07:58;;;;;;;59.20;34.70;;;;;;;4.91;71.46;99248.25;4951677;28;98060;-84
2022/11/23 11:10:37;;;;;;;60.73;35.63;;;;;;;4.91;71.46;99252.59;4950312;28;96811;-84
2022/11/23 11:13:14;;;;;;;61.37;34.30;;;;;;;5.08;71.24;99255.56;4932980;28;98976;-84
2022/11/23 11:15:50;;;;;;;59.60;35.83;;;;;;;4.94;70.44;99216.09;4946083;28;99135;-85
2022/11/23 11:18:17;;;;;;;56.37;34.03;;;;;;;5.24;70.50;99249.97;4929993;28;100955;-85
2022/11/23 11:20:44;;;;;;;56.23;34.53;;;;;;;5.23;70.53;99238.66;4939407;28;97363;-86
2022/11/23 11:23:17;;;;;;;63.47;35.33;;;;;;;5.27;70.34;99236.84;4937524;28;97253;-88
2022/11/23 11:25:43;;;;;;;58.33;34.93;;;;;;;5.36;70.30;99228.78;4929577;28;97623;-86
2022/11/23 11:28:25;;;;;;;57.17;34.93;;;;;;;5.43;70.06;99243.28;4916941;28;100995;-86
2022/11/23 11:31:11;;;;;;;56.87;35.47;;;;;;;5.47;69.54;99244.03;4917909;28;97587;-87